Time;durP1;ratioP1;P1;durP2;ratioP2;P2;SDS_P1;SDS_P2;PMS_P1;PMS_P2;Temp;Humidity;BMP_temperature;BMP_pressure;BME280_temperature;BME280_humidity;BME280_pressure;Samples;Min_cycle;Max_cycle;Signal;HPM_P1;HPM_P2
2022/08/22 00:04:13;;;;;;;;;;;25.40;41.20;;;;;;8432559;28;19928;-44
2022/08/22 00:08:37;;;;;;;;;;;25.40;41.20;;;;;;8431751;28;19939;-44
2022/08/22 00:12:43;;;;;;;;;;;25.40;41.20;;;;;;8432338;28;19927;-44
2022/08/22 00:16:59;;;;;;;;;;;25.30;41.20;;;;;;8431887;28;19920;-44
2022/08/22 00:21:15;;;;;;;;;;;25.40;41.20;;;;;;8431604;28;19924;-44
2022/08/22 00:25:16;;;;;;;;;;;25.30;41.20;;;;;;8431953;28;19974;-44
2022/08/22 00:29:20;;;;;;;;;;;25.30;41.20;;;;;;8431053;28;19916;-44
2022/08/22 00:33:36;;;;;;;;;;;25.30;41.20;;;;;;8431418;28;20461;-44
2022/08/22 00:37:36;;;;;;;;;;;25.30;41.20;;;;;;8431358;28;20351;-45
2022/08/22 00:41:48;;;;;;;;;;;25.30;41.20;;;;;;8430659;28;19916;-44
2022/08/22 00:45:58;;;;;;;;;;;25.30;41.20;;;;;;8431187;28;19928;-44
2022/08/22 00:50:07;;;;;;;;;;;25.30;41.20;;;;;;8430863;28;19916;-44
2022/08/22 00:54:11;;;;;;;;;;;25.30;41.20;;;;;;8430900;28;19981;-45
2022/08/22 00:58:35;;;;;;;;;;;25.30;41.20;;;;;;8430610;28;20315;-45
2022/08/22 01:02:54;;;;;;;;;;;25.30;41.20;;;;;;8428672;28;19924;-43
2022/08/22 01:06:58;;;;;;;;;;;25.20;41.20;;;;;;8430455;28;19923;-43
2022/08/22 01:11:13;;;;;;;;;;;25.20;41.10;;;;;;8429880;28;19916;-43
2022/08/22 01:15:20;;;;;;;;;;;25.20;41.10;;;;;;8430501;28;19920;-43
2022/08/22 01:19:39;;;;;;;;;;;25.20;41.10;;;;;;8430152;28;19916;-43
2022/08/22 01:24:08;;;;;;;;;;;25.30;41.20;;;;;;8429499;28;19931;-43
2022/08/22 01:28:21;;;;;;;;;;;25.20;41.10;;;;;;8344508;28;19920;-43
2022/08/22 01:32:41;;;;;;;;;;;25.20;41.10;;;;;;8424557;28;19920;-43
2022/08/22 01:37:03;;;;;;;;;;;25.20;41.10;;;;;;8430126;28;19920;-43
2022/08/22 01:41:03;;;;;;;;;;;25.20;41.20;;;;;;8429739;28;20393;-43
2022/08/22 01:45:13;;;;;;;;;;;25.20;41.10;;;;;;8429494;28;20018;-43
2022/08/22 01:49:16;;;;;;;;;;;25.20;41.10;;;;;;8429654;28;19916;-43
2022/08/22 01:53:34;;;;;;;;;;;25.20;41.20;;;;;;8429244;28;19990;-44
2022/08/22 01:57:52;;;;;;;;;;;25.20;41.10;;;;;;8429691;28;20368;-45
2022/08/22 02:02:03;;;;;;;;;;;25.20;41.20;;;;;;8429260;28;19920;-44
2022/08/22 02:06:10;;;;;;;;;;;25.20;41.20;;;;;;8429336;28;19920;-44
2022/08/22 02:10:14;;;;;;;;;;;25.20;41.20;;;;;;8429329;28;19920;-43
2022/08/22 02:14:14;;;;;;;;;;;25.10;41.10;;;;;;8433342;28;20364;-43
2022/08/22 02:18:19;;;;;;;;;;;25.10;41.10;;;;;;8436102;28;20010;-43
2022/08/22 02:22:29;;;;;;;;;;;25.10;41.10;;;;;;8435751;28;20365;-43
2022/08/22 02:26:49;;;;;;;;;;;25.10;41.10;;;;;;8435080;28;20332;-43
2022/08/22 02:30:53;;;;;;;;;;;25.10;41.20;;;;;;8435920;28;19927;-44
2022/08/22 02:34:57;;;;;;;;;;;25.10;41.10;;;;;;8435213;28;19923;-44
2022/08/22 02:39:00;;;;;;;;;;;25.10;41.10;;;;;;8434621;28;19970;-43
2022/08/22 02:43:13;;;;;;;;;;;25.10;41.20;;;;;;8434841;28;19924;-46
2022/08/22 02:47:24;;;;;;;;;;;25.10;41.10;;;;;;8434453;28;20006;-43
2022/08/22 02:51:32;;;;;;;;;;;25.00;41.10;;;;;;8435127;28;19916;-46
2022/08/22 02:55:35;;;;;;;;;;;25.00;41.10;;;;;;8434850;28;19985;-45
2022/08/22 02:59:37;;;;;;;;;;;25.00;41.10;;;;;;8434047;28;19916;-45
2022/08/22 03:03:39;;;;;;;;;;;25.00;41.10;;;;;;8434390;28;20005;-43
2022/08/22 03:07:43;;;;;;;;;;;25.00;41.10;;;;;;8434199;28;19962;-44
2022/08/22 03:11:49;;;;;;;;;;;25.00;41.10;;;;;;8433924;28;19912;-44
2022/08/22 03:15:55;;;;;;;;;;;25.00;41.10;;;;;;8434121;28;19943;-45
2022/08/22 03:20:02;;;;;;;;;;;25.00;41.10;;;;;;8433921;28;20468;-45
2022/08/22 03:24:22;;;;;;;;;;;25.00;41.10;;;;;;8432668;28;19924;-43
2022/08/22 03:28:26;;;;;;;;;;;25.00;41.10;;;;;;8433546;28;20449;-44
2022/08/22 03:32:45;;;;;;;;;;;25.00;41.20;;;;;;8432949;28;19952;-44
2022/08/22 03:36:55;;;;;;;;;;;24.90;41.10;;;;;;8433843;28;20280;-47
2022/08/22 03:41:01;;;;;;;;;;;24.90;41.10;;;;;;8433295;28;19916;-44
2022/08/22 03:45:11;;;;;;;;;;;24.90;41.10;;;;;;8432975;28;19924;-44
2022/08/22 03:49:30;;;;;;;;;;;24.90;41.10;;;;;;8432875;28;20006;-44
2022/08/22 03:53:37;;;;;;;;;;;24.90;41.10;;;;;;8432245;28;19923;-45
2022/08/22 03:57:43;;;;;;;;;;;24.90;41.20;;;;;;8432914;28;19951;-46
2022/08/22 04:01:55;;;;;;;;;;;24.90;41.20;;;;;;8424439;28;19917;-45
2022/08/22 04:06:01;;;;;;;;;;;24.90;41.70;;;;;;8430308;28;19934;-45
2022/08/22 04:10:20;;;;;;;;;;;24.80;41.10;;;;;;8432224;28;19924;-45
2022/08/22 04:14:39;;;;;;;;;;;24.90;41.20;;;;;;8431537;28;19920;-45
2022/08/22 04:18:48;;;;;;;;;;;24.90;41.20;;;;;;8432270;28;19947;-46
2022/08/22 04:23:01;;;;;;;;;;;24.80;41.10;;;;;;8431788;28;19932;-45
2022/08/22 04:27:18;;;;;;;;;;;24.80;41.10;;;;;;8431668;28;20361;-45
2022/08/22 04:31:26;;;;;;;;;;;24.80;41.70;;;;;;8431809;28;19920;-45
2022/08/22 04:35:44;;;;;;;;;;;24.80;41.70;;;;;;8430124;28;19952;-45
2022/08/22 04:39:44;;;;;;;;;;;24.80;41.10;;;;;;8431212;28;19916;-46
2022/08/22 04:43:50;;;;;;;;;;;24.80;41.10;;;;;;8430994;28;19943;-45
2022/08/22 04:47:59;;;;;;;;;;;24.80;41.20;;;;;;8430553;28;20289;-46
2022/08/22 04:52:03;;;;;;;;;;;24.80;41.10;;;;;;8431188;28;20392;-45
2022/08/22 04:56:22;;;;;;;;;;;24.80;41.10;;;;;;8430412;28;19962;-44
2022/08/22 05:00:23;;;;;;;;;;;24.80;41.10;;;;;;8430723;28;20204;-45
2022/08/22 05:04:23;;;;;;;;;;;24.80;41.10;;;;;;8430571;28;19920;-45
2022/08/22 05:08:25;;;;;;;;;;;24.70;41.10;;;;;;8430040;28;19920;-45
2022/08/22 05:12:29;;;;;;;;;;;24.80;41.20;;;;;;8430548;28;19951;-45
2022/08/22 05:16:33;;;;;;;;;;;24.70;41.10;;;;;;8430001;28;19920;-44
2022/08/22 05:20:35;;;;;;;;;;;24.70;41.20;;;;;;8429621;28;19947;-44
2022/08/22 05:24:41;;;;;;;;;;;24.70;41.10;;;;;;8429896;28;20015;-44
2022/08/22 05:28:47;;;;;;;;;;;24.70;41.20;;;;;;8429929;28;19916;-45
2022/08/22 05:32:47;;;;;;;;;;;24.70;41.20;;;;;;8429447;28;19962;-44
2022/08/22 05:36:51;;;;;;;;;;;24.70;41.20;;;;;;8430125;28;20626;-44
2022/08/22 05:40:56;;;;;;;;;;;24.70;41.20;;;;;;8429950;28;20475;-44
2022/08/22 05:44:56;;;;;;;;;;;24.70;41.20;;;;;;8429137;28;20368;-44
2022/08/22 05:48:58;;;;;;;;;;;24.70;41.10;;;;;;8436915;28;19919;-43
2022/08/22 05:53:02;;;;;;;;;;;24.70;41.20;;;;;;8440380;28;19920;-43
2022/08/22 05:57:23;;;;;;;;;;;24.70;41.10;;;;;;8440886;28;19916;-43
2022/08/22 06:01:30;;;;;;;;;;;24.70;41.10;;;;;;8440854;28;20352;-44
2022/08/22 06:05:33;;;;;;;;;;;24.70;41.10;;;;;;8440098;28;19935;-44
2022/08/22 06:09:43;;;;;;;;;;;24.60;41.10;;;;;;8440920;28;20049;-44
2022/08/22 06:13:47;;;;;;;;;;;24.70;41.10;;;;;;8440338;28;19912;-43
2022/08/22 06:17:54;;;;;;;;;;;24.70;41.10;;;;;;8440177;28;19998;-43
2022/08/22 06:21:56;;;;;;;;;;;24.60;41.10;;;;;;8440513;28;19916;-43
2022/08/22 06:25:58;;;;;;;;;;;24.60;41.10;;;;;;8440149;28;20281;-44
2022/08/22 06:30:00;;;;;;;;;;;24.60;41.10;;;;;;8439702;28;19985;-44
2022/08/22 06:34:09;;;;;;;;;;;24.60;41.10;;;;;;8440066;28;19917;-44
2022/08/22 06:38:11;;;;;;;;;;;24.60;41.10;;;;;;8439703;28;20436;-43
2022/08/22 06:42:22;;;;;;;;;;;24.60;41.10;;;;;;8440389;28;20266;-45
2022/08/22 06:46:25;;;;;;;;;;;24.60;41.10;;;;;;8444352;28;19916;-46
2022/08/22 06:50:30;;;;;;;;;;;24.60;41.10;;;;;;8439343;28;19920;-44
2022/08/22 06:54:32;;;;;;;;;;;24.60;41.10;;;;;;8440149;28;19916;-44
2022/08/22 06:58:35;;;;;;;;;;;24.60;41.10;;;;;;8437696;28;19955;-44
2022/08/22 07:02:44;;;;;;;;;;;24.70;41.00;;;;;;8434238;28;20376;-45
2022/08/22 07:06:48;;;;;;;;;;;24.70;41.00;;;;;;8426141;28;19924;-45
2022/08/22 07:11:05;;;;;;;;;;;24.70;41.00;;;;;;8421254;28;19999;-45
2022/08/22 07:15:10;;;;;;;;;;;24.70;41.00;;;;;;8433880;28;19920;-46
2022/08/22 07:19:31;;;;;;;;;;;24.70;41.00;;;;;;8433981;28;19915;-45
2022/08/22 07:23:36;;;;;;;;;;;24.60;41.00;;;;;;8432304;28;20399;-44
2022/08/22 07:27:49;;;;;;;;;;;24.70;41.00;;;;;;8433811;28;19915;-45
2022/08/22 07:31:52;;;;;;;;;;;24.70;41.00;;;;;;8433517;28;19975;-45
2022/08/22 07:36:04;;;;;;;;;;;24.70;41.00;;;;;;8432714;28;20391;-45
2022/08/22 07:40:07;;;;;;;;;;;24.70;41.00;;;;;;8433234;28;20011;-44
2022/08/22 07:44:08;;;;;;;;;;;24.70;41.00;;;;;;8432581;28;20022;-44
2022/08/22 07:48:20;;;;;;;;;;;24.70;41.00;;;;;;8433276;28;19916;-44
2022/08/22 07:52:21;;;;;;;;;;;24.70;41.00;;;;;;8432761;28;19923;-44
2022/08/22 07:56:24;;;;;;;;;;;24.70;41.00;;;;;;8432246;28;19923;-45
2022/08/22 08:00:25;;;;;;;;;;;24.70;41.00;;;;;;8426694;28;19960;-46
2022/08/22 08:04:28;;;;;;;;;;;24.70;41.00;;;;;;8432350;28;19962;-45
2022/08/22 08:08:39;;;;;;;;;;;24.60;41.00;;;;;;8432008;28;20365;-44
2022/08/22 08:12:46;;;;;;;;;;;24.70;41.00;;;;;;8431829;28;19916;-44
2022/08/22 08:17:05;;;;;;;;;;;24.70;41.00;;;;;;8431749;28;19924;-48
2022/08/22 08:21:07;;;;;;;;;;;24.80;41.00;;;;;;8431993;28;19916;-45
2022/08/22 08:25:11;;;;;;;;;;;24.70;41.00;;;;;;8431836;28;19927;-46
2022/08/22 08:29:15;;;;;;;;;;;24.80;41.00;;;;;;8432725;28;19916;-44
2022/08/22 08:33:18;;;;;;;;;;;24.80;41.00;;;;;;8441836;28;19920;-45
2022/08/22 08:37:24;;;;;;;;;;;24.80;41.00;;;;;;8431215;28;19995;-44
2022/08/22 08:41:40;;;;;;;;;;;24.80;41.00;;;;;;8430832;28;19927;-44
2022/08/22 08:45:59;;;;;;;;;;;24.80;41.00;;;;;;8431250;28;19920;-48
2022/08/22 08:50:05;;;;;;;;;;;24.80;41.00;;;;;;8408164;28;19962;-44
2022/08/22 08:54:23;;;;;;;;;;;24.80;40.90;;;;;;8429965;28;19987;-45
2022/08/22 08:58:49;;;;;;;;;;;24.80;40.90;;;;;;8431440;28;19939;-46
2022/08/22 09:03:08;;;;;;;;;;;24.90;41.00;;;;;;8425815;28;20431;-46
2022/08/22 09:07:29;;;;;;;;;;;24.80;40.90;;;;;;8443573;28;19916;-44
2022/08/22 09:11:45;;;;;;;;;;;24.90;41.00;;;;;;8443991;28;19916;-45
2022/08/22 09:15:55;;;;;;;;;;;25.00;40.90;;;;;;8430557;28;19959;-44
2022/08/22 09:20:01;;;;;;;;;;;24.90;40.90;;;;;;8430197;28;20388;-43
2022/08/22 09:24:14;;;;;;;;;;;25.00;40.90;;;;;;8385794;28;20012;-45
2022/08/22 09:32:55;;;;;;;;;;;25.00;40.90;;;;;;8434766;28;19927;-44
2022/08/22 09:37:11;;;;;;;;;;;25.00;40.90;;;;;;8429777;28;19916;-44
2022/08/22 09:41:11;;;;;;;;;;;25.00;40.90;;;;;;8433093;28;19916;-43
2022/08/22 09:45:30;;;;;;;;;;;25.00;40.80;;;;;;8426214;28;20430;-44
2022/08/22 09:49:39;;;;;;;;;;;25.10;40.90;;;;;;8429662;28;19920;-45
2022/08/22 09:53:58;;;;;;;;;;;25.10;40.80;;;;;;8429335;28;20365;-44
2022/08/22 09:58:05;;;;;;;;;;;25.10;40.80;;;;;;8429537;28;20040;-45
2022/08/22 10:02:25;;;;;;;;;;;25.10;40.80;;;;;;8428982;28;20003;-43
2022/08/22 10:06:35;;;;;;;;;;;25.10;40.80;;;;;;8429565;28;19973;-44
2022/08/22 10:10:52;;;;;;;;;;;25.20;40.80;;;;;;8427981;28;19923;-44
2022/08/22 10:15:03;;;;;;;;;;;25.20;40.80;;;;;;8428488;28;20380;-43
2022/08/22 10:19:10;;;;;;;;;;;25.20;40.80;;;;;;8429400;28;19916;-44
2022/08/22 10:23:10;;;;;;;;;;;25.20;40.70;;;;;;8428316;28;19931;-45
2022/08/22 10:27:13;;;;;;;;;;;25.20;40.70;;;;;;8428600;28;19916;-44
2022/08/22 10:31:22;;;;;;;;;;;25.20;41.20;;;;;;8428527;28;20364;-44
2022/08/22 10:35:46;;;;;;;;;;;25.30;40.70;;;;;;8430947;28;20306;-45
2022/08/22 10:40:06;;;;;;;;;;;25.30;40.70;;;;;;8391136;28;19995;-44
2022/08/22 10:44:20;;;;;;;;;;;25.30;40.60;;;;;;8434323;28;19925;-45
2022/08/22 10:48:32;;;;;;;;;;;25.40;40.70;;;;;;8434674;28;19916;-45
2022/08/22 10:52:37;;;;;;;;;;;25.40;40.60;;;;;;8434505;28;20300;-46
2022/08/22 10:56:46;;;;;;;;;;;25.40;40.60;;;;;;8433997;28;20261;-45
2022/08/22 11:00:53;;;;;;;;;;;25.40;40.60;;;;;;8434660;28;19991;-44
2022/08/22 11:05:12;;;;;;;;;;;25.40;40.50;;;;;;8434641;28;20020;-44
2022/08/22 11:09:42;;;;;;;;;;;25.40;40.60;;;;;;8434157;28;19916;-43
2022/08/22 11:13:55;;;;;;;;;;;25.40;40.50;;;;;;8416567;28;19917;-46
2022/08/22 11:18:16;;;;;;;;;;;25.50;40.60;;;;;;8433616;28;19973;-45
2022/08/22 11:22:36;;;;;;;;;;;25.50;40.60;;;;;;8433786;28;19951;-45
2022/08/22 11:26:40;;;;;;;;;;;25.50;40.60;;;;;;8433445;28;19963;-45
2022/08/22 11:30:41;;;;;;;;;;;25.60;40.60;;;;;;8433788;28;19916;-46
2022/08/22 11:34:54;;;;;;;;;;;25.50;40.50;;;;;;8433820;28;20420;-45
2022/08/22 11:39:00;;;;;;;;;;;25.60;40.60;;;;;;8432146;28;22431;-45
2022/08/22 11:43:07;;;;;;;;;;;25.60;40.60;;;;;;8433314;28;20269;-44
2022/08/22 11:47:11;;;;;;;;;;;25.60;40.60;;;;;;8432178;28;19967;-44
2022/08/22 11:51:32;;;;;;;;;;;25.60;40.50;;;;;;8433272;28;19922;-44
2022/08/22 11:55:46;;;;;;;;;;;25.60;40.50;;;;;;8381183;28;19912;-44
2022/08/22 11:59:58;;;;;;;;;;;25.60;40.50;;;;;;8432340;28;19912;-45
2022/08/22 12:04:07;;;;;;;;;;;25.70;40.50;;;;;;8432676;28;20376;-44
2022/08/22 12:08:12;;;;;;;;;;;25.70;40.50;;;;;;8431717;28;19916;-43
2022/08/22 12:12:22;;;;;;;;;;;25.70;40.50;;;;;;8432121;28;19923;-44
2022/08/22 12:16:37;;;;;;;;;;;25.80;40.50;;;;;;8432156;28;20002;-44
2022/08/22 12:20:51;;;;;;;;;;;25.80;40.50;;;;;;8431738;28;19912;-45
2022/08/22 12:25:06;;;;;;;;;;;25.80;40.50;;;;;;8432093;28;19931;-44
2022/08/22 12:29:12;;;;;;;;;;;25.80;40.50;;;;;;8431239;28;19916;-44
2022/08/22 12:33:18;;;;;;;;;;;25.80;40.40;;;;;;8431969;28;20369;-46
2022/08/22 12:37:26;;;;;;;;;;;25.90;40.40;;;;;;8431744;28;19916;-47
2022/08/22 12:41:46;;;;;;;;;;;25.90;40.40;;;;;;8430964;28;19916;-43
2022/08/22 12:45:52;;;;;;;;;;;25.90;40.30;;;;;;8431352;28;19921;-45
2022/08/22 12:50:05;;;;;;;;;;;25.90;40.30;;;;;;8431287;28;19916;-43
2022/08/22 12:54:06;;;;;;;;;;;25.90;40.30;;;;;;8430685;28;19923;-44
2022/08/22 12:58:11;;;;;;;;;;;26.00;40.30;;;;;;8430285;28;19923;-44
2022/08/22 13:02:14;;;;;;;;;;;26.00;40.30;;;;;;8429412;28;19916;-45
2022/08/22 13:06:33;;;;;;;;;;;26.00;40.20;;;;;;8430928;28;19959;-45
2022/08/22 13:10:40;;;;;;;;;;;26.00;40.20;;;;;;8431055;28;19919;-45
2022/08/22 13:14:43;;;;;;;;;;;26.00;40.20;;;;;;8430010;28;19927;-45
2022/08/22 13:18:51;;;;;;;;;;;26.00;40.20;;;;;;8430386;28;19994;-44
2022/08/22 13:22:52;;;;;;;;;;;26.10;40.20;;;;;;8430124;28;19924;-44
2022/08/22 13:26:57;;;;;;;;;;;26.00;40.10;;;;;;8429661;28;19938;-45
2022/08/22 13:30:58;;;;;;;;;;;26.00;40.10;;;;;;8429909;28;19912;-44
2022/08/22 13:34:59;;;;;;;;;;;26.10;40.20;;;;;;8429774;28;19916;-43
2022/08/22 13:39:22;;;;;;;;;;;26.10;40.20;;;;;;8430160;28;19931;-44
2022/08/22 13:43:24;;;;;;;;;;;26.10;40.20;;;;;;8430140;28;19931;-44
2022/08/22 13:47:27;;;;;;;;;;;26.10;40.20;;;;;;8429304;28;19969;-44
2022/08/22 13:51:30;;;;;;;;;;;26.10;40.10;;;;;;8429743;28;19916;-44
2022/08/22 13:55:51;;;;;;;;;;;26.10;40.20;;;;;;8430090;28;20289;-45
2022/08/22 14:00:03;;;;;;;;;;;26.10;40.10;;;;;;8429482;28;19917;-44
2022/08/22 14:04:22;;;;;;;;;;;26.10;40.10;;;;;;8429624;28;20384;-44
2022/08/22 14:08:28;;;;;;;;;;;26.20;40.20;;;;;;8430428;28;19923;-45
2022/08/22 14:12:34;;;;;;;;;;;26.20;40.20;;;;;;8436170;28;20024;-45
2022/08/22 14:16:43;;;;;;;;;;;26.20;40.20;;;;;;8435859;28;20368;-44
2022/08/22 14:20:44;;;;;;;;;;;26.20;40.10;;;;;;8435729;28;19987;-45
2022/08/22 14:24:48;;;;;;;;;;;26.20;40.20;;;;;;8435585;28;19931;-45
2022/08/22 14:28:49;;;;;;;;;;;26.20;40.20;;;;;;8435629;28;20380;-45
2022/08/22 14:32:52;;;;;;;;;;;26.20;40.20;;;;;;8434996;28;19965;-45
2022/08/22 14:37:11;;;;;;;;;;;26.10;40.10;;;;;;8434893;28;19920;-45
2022/08/22 14:41:22;;;;;;;;;;;26.20;40.20;;;;;;8436444;28;20293;-45
2022/08/22 14:45:33;;;;;;;;;;;26.20;40.10;;;;;;8435236;28;19924;-45
2022/08/22 14:49:57;;;;;;;;;;;26.20;40.10;;;;;;8434952;28;20357;-45
2022/08/22 14:54:11;;;;;;;;;;;26.20;40.10;;;;;;8434388;28;19948;-45
2022/08/22 14:58:14;;;;;;;;;;;26.20;40.10;;;;;;8434680;28;20041;-43
2022/08/22 15:02:21;;;;;;;;;;;26.20;40.10;;;;;;8434185;28;19937;-43
2022/08/22 15:06:30;;;;;;;;;;;26.20;40.00;;;;;;8434665;28;19924;-45
2022/08/22 15:10:32;;;;;;;;;;;26.20;40.00;;;;;;8434507;28;19923;-43
2022/08/22 15:14:36;;;;;;;;;;;26.20;40.00;;;;;;8433669;28;19920;-44
2022/08/22 15:18:37;;;;;;;;;;;26.20;40.00;;;;;;8434008;28;19923;-43
2022/08/22 15:22:39;;;;;;;;;;;26.20;40.00;;;;;;8433042;28;19916;-44
2022/08/22 15:26:47;;;;;;;;;;;26.20;40.00;;;;;;8433605;28;20304;-45
2022/08/22 15:30:57;;;;;;;;;;;26.20;40.00;;;;;;8434110;28;19973;-46
2022/08/22 15:35:03;;;;;;;;;;;26.20;40.00;;;;;;8433671;28;19917;-44
2022/08/22 15:39:22;;;;;;;;;;;26.30;40.00;;;;;;8432766;28;19916;-44
2022/08/22 15:43:34;;;;;;;;;;;26.30;40.00;;;;;;8433402;28;20372;-44
2022/08/22 15:47:40;;;;;;;;;;;26.30;40.00;;;;;;8432717;28;19959;-44
2022/08/22 15:51:43;;;;;;;;;;;26.30;40.00;;;;;;8433494;28;20361;-45
2022/08/22 15:56:01;;;;;;;;;;;26.30;40.00;;;;;;8433368;28;19916;-47
2022/08/22 16:00:24;;;;;;;;;;;26.30;40.00;;;;;;8432421;28;19917;-44
2022/08/22 16:04:33;;;;;;;;;;;26.30;40.00;;;;;;8417489;28;19974;-44
2022/08/22 16:08:34;;;;;;;;;;;26.20;39.90;;;;;;8428706;28;19947;-44
2022/08/22 16:12:34;;;;;;;;;;;26.30;39.90;;;;;;8432464;28;19916;-45
2022/08/22 16:16:44;;;;;;;;;;;26.30;39.90;;;;;;8432357;28;19927;-45
2022/08/22 16:20:48;;;;;;;;;;;26.30;40.00;;;;;;8431707;28;19916;-44
2022/08/22 16:24:56;;;;;;;;;;;26.30;40.00;;;;;;8431845;28;19928;-45
2022/08/22 16:29:03;;;;;;;;;;;26.30;40.00;;;;;;8431979;28;19916;-44
2022/08/22 16:33:05;;;;;;;;;;;26.30;40.00;;;;;;8431359;28;20242;-44
2022/08/22 16:37:16;;;;;;;;;;;26.30;40.00;;;;;;8431857;28;19920;-44
2022/08/22 16:41:23;;;;;;;;;;;26.30;40.00;;;;;;8431298;28;20482;-45
2022/08/22 16:45:23;;;;;;;;;;;26.30;40.00;;;;;;8431519;28;20308;-44
2022/08/22 16:49:28;;;;;;;;;;;26.30;40.00;;;;;;8431265;28;19920;-45
2022/08/22 16:53:29;;;;;;;;;;;26.30;40.00;;;;;;8430724;28;19923;-45
2022/08/22 16:57:48;;;;;;;;;;;26.30;40.00;;;;;;8431164;28;19916;-46
2022/08/22 17:02:04;;;;;;;;;;;26.30;40.00;;;;;;8431124;28;19927;-44
2022/08/22 17:06:25;;;;;;;;;;;26.20;39.90;;;;;;8430458;28;19983;-44
2022/08/22 17:10:49;;;;;;;;;;;26.20;39.90;;;;;;8430859;28;19920;-45
2022/08/22 17:15:09;;;;;;;;;;;26.20;40.00;;;;;;8382924;28;20405;-45
2022/08/22 17:19:16;;;;;;;;;;;26.20;40.00;;;;;;8430489;28;19920;-45
2022/08/22 17:23:17;;;;;;;;;;;26.20;40.00;;;;;;8429768;28;20357;-44
2022/08/22 17:27:17;;;;;;;;;;;26.20;40.10;;;;;;8430633;28;19916;-45
2022/08/22 17:31:26;;;;;;;;;;;26.20;40.10;;;;;;8430087;28;19987;-44
2022/08/22 17:35:38;;;;;;;;;;;26.20;40.10;;;;;;8429661;28;19916;-45
2022/08/22 17:39:47;;;;;;;;;;;26.20;40.10;;;;;;8429763;28;19959;-44
2022/08/22 17:44:06;;;;;;;;;;;26.20;40.10;;;;;;8429076;28;19924;-46
2022/08/22 17:48:23;;;;;;;;;;;26.20;40.10;;;;;;8429434;28;19948;-45
2022/08/22 17:52:28;;;;;;;;;;;26.20;40.10;;;;;;8429925;28;19923;-44
2022/08/22 17:56:42;;;;;;;;;;;26.20;40.10;;;;;;8429015;28;19923;-45
2022/08/22 18:00:51;;;;;;;;;;;26.10;40.10;;;;;;8429522;28;19916;-44
2022/08/22 18:05:01;;;;;;;;;;;26.10;40.10;;;;;;8429431;28;19932;-44
2022/08/22 18:09:06;;;;;;;;;;;26.20;40.20;;;;;;8404861;28;20026;-44
2022/08/22 18:13:11;;;;;;;;;;;26.10;40.10;;;;;;8429619;28;19916;-44
2022/08/22 18:17:34;;;;;;;;;;;26.10;40.10;;;;;;8429044;28;20280;-44
2022/08/22 18:21:47;;;;;;;;;;;26.10;40.10;;;;;;8400333;28;19954;-45
2022/08/22 18:25:59;;;;;;;;;;;26.10;40.10;;;;;;8429065;28;19970;-45
2022/08/22 18:30:25;;;;;;;;;;;26.10;40.10;;;;;;8429127;28;19969;-44
2022/08/22 18:34:34;;;;;;;;;;;26.10;40.10;;;;;;8423971;28;19916;-44
2022/08/22 18:38:44;;;;;;;;;;;26.10;40.10;;;;;;8428556;28;19999;-45
2022/08/22 18:42:51;;;;;;;;;;;26.10;40.10;;;;;;8429241;28;19923;-45
2022/08/22 18:46:52;;;;;;;;;;;26.10;40.10;;;;;;8428710;28;20006;-44
2022/08/22 18:51:25;;;;;;;;;;;26.10;40.10;;;;;;8428273;28;19927;-45
2022/08/22 18:55:37;;;;;;;;;;;26.10;40.20;;;;;;8374412;28;19916;-45
2022/08/22 18:59:40;;;;;;;;;;;26.10;40.10;;;;;;8434279;28;19916;-45
2022/08/22 19:03:47;;;;;;;;;;;26.10;40.10;;;;;;8434699;28;19924;-44
2022/08/22 19:07:55;;;;;;;;;;;26.00;40.00;;;;;;8434792;28;19995;-44
2022/08/22 19:11:55;;;;;;;;;;;26.00;40.00;;;;;;8417830;28;19921;-45
2022/08/22 19:16:14;;;;;;;;;;;26.10;40.10;;;;;;8423932;28;19924;-44
2022/08/22 19:24:55;;;;;;;;;;;26.00;40.00;;;;;;8433781;28;19971;-44
2022/08/22 19:28:56;;;;;;;;;;;26.00;40.10;;;;;;8433210;28;19916;-44
2022/08/22 19:32:58;;;;;;;;;;;26.00;40.10;;;;;;8433869;28;19954;-45
2022/08/22 19:37:10;;;;;;;;;;;26.00;40.00;;;;;;8433893;28;19916;-44
2022/08/22 19:41:31;;;;;;;;;;;26.00;40.00;;;;;;8433058;28;19962;-44
2022/08/22 19:45:38;;;;;;;;;;;26.00;40.00;;;;;;8433248;28;19974;-44
2022/08/22 19:49:39;;;;;;;;;;;26.00;40.00;;;;;;8433174;28;20296;-45
2022/08/22 19:54:06;;;;;;;;;;;26.00;40.00;;;;;;8432571;28;19999;-45
2022/08/22 19:58:25;;;;;;;;;;;26.00;40.00;;;;;;8433150;28;19973;-45
2022/08/22 20:02:34;;;;;;;;;;;26.00;40.00;;;;;;8432480;28;19947;-44
2022/08/22 20:06:39;;;;;;;;;;;26.00;40.10;;;;;;8432091;28;19924;-43
2022/08/22 20:10:57;;;;;;;;;;;26.00;40.10;;;;;;8432636;28;19923;-44
2022/08/22 20:15:09;;;;;;;;;;;26.00;40.10;;;;;;8431767;28;19924;-44
2022/08/22 20:19:09;;;;;;;;;;;26.00;40.10;;;;;;8432249;28;19916;-44
2022/08/22 20:23:21;;;;;;;;;;;25.90;40.10;;;;;;8431817;28;20168;-45
2022/08/22 20:27:21;;;;;;;;;;;25.90;40.10;;;;;;8432382;28;19944;-44
2022/08/22 20:31:23;;;;;;;;;;;26.00;40.10;;;;;;8431871;28;19924;-45
2022/08/22 20:35:34;;;;;;;;;;;25.90;40.10;;;;;;8431242;28;19916;-45
2022/08/22 20:39:48;;;;;;;;;;;25.90;40.10;;;;;;8431640;28;20049;-44
2022/08/22 20:43:59;;;;;;;;;;;25.90;40.10;;;;;;8431443;28;19935;-45
2022/08/22 20:47:59;;;;;;;;;;;25.90;40.10;;;;;;8431339;28;20331;-44
2022/08/22 20:52:01;;;;;;;;;;;25.90;40.10;;;;;;8431234;28;19920;-44
2022/08/22 20:56:04;;;;;;;;;;;25.90;40.10;;;;;;8430800;28;20339;-45
2022/08/22 21:00:09;;;;;;;;;;;25.90;40.10;;;;;;8430840;28;19962;-45
2022/08/22 21:04:10;;;;;;;;;;;25.90;40.10;;;;;;8430782;28;19931;-43
2022/08/22 21:08:28;;;;;;;;;;;25.90;40.10;;;;;;8430380;28;19942;-44
2022/08/22 21:12:28;;;;;;;;;;;25.90;40.10;;;;;;8430852;28;19916;-44
2022/08/22 21:16:31;;;;;;;;;;;25.90;40.10;;;;;;8430540;28;19927;-44
2022/08/22 21:20:34;;;;;;;;;;;25.90;40.20;;;;;;8429081;28;19916;-44
2022/08/22 21:24:34;;;;;;;;;;;25.90;40.10;;;;;;8430513;28;19924;-44
2022/08/22 21:28:35;;;;;;;;;;;25.90;40.20;;;;;;8430106;28;19916;-44
2022/08/22 21:32:38;;;;;;;;;;;25.90;40.20;;;;;;8429599;28;20334;-43
2022/08/22 21:36:39;;;;;;;;;;;25.90;40.10;;;;;;8429994;28;19916;-43
2022/08/22 21:40:39;;;;;;;;;;;25.90;40.70;;;;;;8429960;28;19916;-44
2022/08/22 21:44:41;;;;;;;;;;;25.80;40.10;;;;;;8429279;28;19928;-44
2022/08/22 21:48:55;;;;;;;;;;;25.90;40.20;;;;;;8429929;28;19969;-45
2022/08/22 21:53:00;;;;;;;;;;;25.80;40.10;;;;;;8429707;28;20404;-45
2022/08/22 21:57:07;;;;;;;;;;;25.80;40.10;;;;;;8429332;28;19920;-44
2022/08/22 22:01:26;;;;;;;;;;;25.80;40.10;;;;;;8428767;28;20483;-45
2022/08/22 22:05:27;;;;;;;;;;;25.80;40.10;;;;;;8429175;28;19924;-45
2022/08/22 22:09:27;;;;;;;;;;;25.80;40.20;;;;;;8428542;28;19916;-44
2022/08/22 22:13:28;;;;;;;;;;;25.80;40.20;;;;;;8429603;28;19994;-45
2022/08/22 22:17:28;;;;;;;;;;;25.80;40.20;;;;;;8428845;28;20380;-44
2022/08/22 22:21:30;;;;;;;;;;;25.80;40.20;;;;;;8429463;28;19916;-44
2022/08/22 22:25:30;;;;;;;;;;;25.80;40.20;;;;;;8429365;28;19979;-44
2022/08/22 22:29:31;;;;;;;;;;;25.80;40.20;;;;;;8430236;28;19920;-44
2022/08/22 22:33:35;;;;;;;;;;;25.80;40.20;;;;;;8435827;28;20404;-45
2022/08/22 22:37:35;;;;;;;;;;;25.80;40.20;;;;;;8435490;28;19916;-44
2022/08/22 22:41:36;;;;;;;;;;;25.80;40.20;;;;;;8434959;28;19923;-43
2022/08/22 22:45:37;;;;;;;;;;;25.80;40.20;;;;;;8435231;28;19928;-43
2022/08/22 22:49:38;;;;;;;;;;;25.80;40.20;;;;;;8435385;28;20335;-43
2022/08/22 22:53:38;;;;;;;;;;;25.70;40.20;;;;;;8434601;28;19916;-43
2022/08/22 22:57:39;;;;;;;;;;;25.70;40.20;;;;;;8435078;28;19923;-44
2022/08/22 23:02:18;;;;;;;;;;;25.70;40.20;;;;;;8434809;28;20441;-44
2022/08/22 23:06:20;;;;;;;;;;;25.70;40.20;;;;;;8265931;28;19925;-44
2022/08/22 23:10:21;;;;;;;;;;;25.70;40.20;;;;;;8345320;28;19920;-43
2022/08/22 23:14:21;;;;;;;;;;;25.80;40.30;;;;;;8434144;28;19924;-44
2022/08/22 23:18:21;;;;;;;;;;;25.70;40.30;;;;;;8434561;28;19916;-44
2022/08/22 23:22:22;;;;;;;;;;;25.70;40.30;;;;;;8434107;28;20484;-44
2022/08/22 23:26:23;;;;;;;;;;;25.70;40.30;;;;;;8433423;28;19924;-44
2022/08/22 23:30:23;;;;;;;;;;;25.70;40.30;;;;;;8433968;28;19916;-44
2022/08/22 23:34:29;;;;;;;;;;;25.70;40.30;;;;;;8433918;28;20305;-45
2022/08/22 23:38:29;;;;;;;;;;;25.70;40.30;;;;;;8433120;28;19916;-43
2022/08/22 23:42:30;;;;;;;;;;;25.70;40.90;;;;;;8432668;28;19916;-44
2022/08/22 23:46:30;;;;;;;;;;;25.70;40.30;;;;;;8433374;28;20328;-43
2022/08/22 23:50:32;;;;;;;;;;;25.70;40.30;;;;;;8432898;28;19920;-44
2022/08/22 23:54:33;;;;;;;;;;;25.70;40.40;;;;;;8433296;28;19926;-44
2022/08/22 23:58:33;;;;;;;;;;;25.70;40.40;;;;;;8433090;28;19923;-43
